Hlavní strana
METAR-TAF:

METAR-TAF

Letiště :

Curaçao, Nizozemské Antily

zeměpisná šířka: 12-12N, zeměpisná délka: 068-58W, výška: 9 m

Aktuální stav počasí

Zpráva byla vytvořena před 1 hodinou a 10 minutami, v 22:00 UTC
Východojihovýchodní vítr 14 kt
Teplota 28°C
Vlhkost vzduchu 74%
Tlak 1012 hPa
Viditelnost 10 km a více

METAR: TNCC 182200Z AUTO 11014KT 9999 NSC 28/23 Q1012 NOSIG

Čas: 19:10 (23:10 UTC)

Předpověď počasí

Zpráva byla vytvořena před 7 hodinami a 10 minutami, v 16:00 UTC
Předpověď platná od 18 v 18 UTC do 19 v 18 UTC
Východní vítr 14 kt
Viditelnost 10 km a více
Polojasno ve výšce 2000 ft
Pravděpodobnost 30% :
Dočasný
od 19 v 06 UTC do 19 v 16 UTC
Oblačno až skoro zataženo ve výšce 1500 ft

TAF: TNCC 181600Z 1818/1918 10014KT 9999 SCT020 PROB30 TEMPO 1906/1916 BKN015

Stav a předpovědi počasí z více než 4 000 letišť (zprávy METAR a TAF).

Červené a žluté tečky na mapě představují dostupné meteorologické stanice.

Když kurzor umístíte na tečku, zobrazí se název stanice.

Pak kliknutím zobrazíte stav a předpověď počasí.

Chcete-li změnit mapu, kliknutím na zelené tlačítko se znaménkem +mapu přiblížíte, kliknutím na zelené tlačítko se znaménkem – mapu oddálíte a kliknutím na zelené šipky přejdete na sousední mapy.


METAR-TAF: